sensor_id;sensor_type;location;lat;lon;timestamp;P1;durP1;ratioP1;P2;durP2;ratioP2
4043;SDS011;2036;51.578;7.108;2022-10-16T00:01:20;252.23;;;227.97;;
4043;SDS011;2036;51.578;7.108;2022-10-16T00:03:49;290.73;;;264.40;;
4043;SDS011;2036;51.578;7.108;2022-10-16T00:06:16;239.90;;;215.73;;
4043;SDS011;2036;51.578;7.108;2022-10-16T00:08:44;250.43;;;226.27;;
4043;SDS011;2036;51.578;7.108;2022-10-16T00:11:12;222.20;;;199.13;;
4043;SDS011;2036;51.578;7.108;2022-10-16T00:13:46;216.83;;;194.40;;
4043;SDS011;2036;51.578;7.108;2022-10-16T00:16:13;220.73;;;197.77;;
4043;SDS011;2036;51.578;7.108;2022-10-16T00:18:41;204.07;;;182.07;;
4043;SDS011;2036;51.578;7.108;2022-10-16T00:21:13;243.03;;;219.17;;
4043;SDS011;2036;51.578;7.108;2022-10-16T00:23:42;209.70;;;187.30;;
4043;SDS011;2036;51.578;7.108;2022-10-16T00:26:09;202.03;;;179.07;;
4043;SDS011;2036;51.578;7.108;2022-10-16T00:28:38;223.50;;;200.27;;
4043;SDS011;2036;51.578;7.108;2022-10-16T00:31:05;198.50;;;177.03;;
4043;SDS011;2036;51.578;7.108;2022-10-16T00:33:34;220.77;;;198.17;;
4043;SDS011;2036;51.578;7.108;2022-10-16T00:36:02;211.50;;;188.67;;
4043;SDS011;2036;51.578;7.108;2022-10-16T00:38:29;216.83;;;193.53;;
4043;SDS011;2036;51.578;7.108;2022-10-16T00:40:55;228.40;;;205.10;;
4043;SDS011;2036;51.578;7.108;2022-10-16T00:46:10;223.37;;;200.13;;
4043;SDS011;2036;51.578;7.108;2022-10-16T00:48:40;249.73;;;224.97;;
4043;SDS011;2036;51.578;7.108;2022-10-16T00:51:10;237.67;;;214.20;;
4043;SDS011;2036;51.578;7.108;2022-10-16T00:53:36;246.63;;;222.47;;
4043;SDS011;2036;51.578;7.108;2022-10-16T00:56:02;244.67;;;221.43;;
4043;SDS011;2036;51.578;7.108;2022-10-16T00:58:28;237.27;;;213.17;;
4043;SDS011;2036;51.578;7.108;2022-10-16T01:00:54;252.17;;;227.03;;
4043;SDS011;2036;51.578;7.108;2022-10-16T01:14:09;268.47;;;242.67;;
4043;SDS011;2036;51.578;7.108;2022-10-16T01:16:49;288.63;;;263.00;;
4043;SDS011;2036;51.578;7.108;2022-10-16T01:22:22;296.87;;;269.47;;
4043;SDS011;2036;51.578;7.108;2022-10-16T01:24:56;291.90;;;265.33;;
4043;SDS011;2036;51.578;7.108;2022-10-16T01:27:28;299.73;;;273.13;;
4043;SDS011;2036;51.578;7.108;2022-10-16T01:40:53;264.53;;;240.07;;
4043;SDS011;2036;51.578;7.108;2022-10-16T01:43:48;260.13;;;235.87;;
4043;SDS011;2036;51.578;7.108;2022-10-16T01:46:18;267.13;;;242.93;;
4043;SDS011;2036;51.578;7.108;2022-10-16T01:48:47;266.17;;;241.57;;
4043;SDS011;2036;51.578;7.108;2022-10-16T01:51:17;281.33;;;255.83;;
4043;SDS011;2036;51.578;7.108;2022-10-16T01:53:47;242.30;;;219.17;;
4043;SDS011;2036;51.578;7.108;2022-10-16T01:56:17;226.97;;;204.93;;
4043;SDS011;2036;51.578;7.108;2022-10-16T01:58:49;225.40;;;202.30;;
4043;SDS011;2036;51.578;7.108;2022-10-16T02:01:21;248.30;;;224.60;;
4043;SDS011;2036;51.578;7.108;2022-10-16T02:03:51;282.57;;;257.00;;
4043;SDS011;2036;51.578;7.108;2022-10-16T02:06:21;261.70;;;237.70;;
4043;SDS011;2036;51.578;7.108;2022-10-16T02:08:48;247.13;;;223.23;;
4043;SDS011;2036;51.578;7.108;2022-10-16T02:11:14;264.53;;;239.37;;
4043;SDS011;2036;51.578;7.108;2022-10-16T02:13:55;276.80;;;251.93;;
4043;SDS011;2036;51.578;7.108;2022-10-16T02:16:39;256.27;;;231.97;;
4043;SDS011;2036;51.578;7.108;2022-10-16T02:19:08;247.83;;;223.60;;
4043;SDS011;2036;51.578;7.108;2022-10-16T02:24:59;242.47;;;217.47;;
4043;SDS011;2036;51.578;7.108;2022-10-16T02:33:01;254.80;;;229.87;;
4043;SDS011;2036;51.578;7.108;2022-10-16T02:35:31;296.40;;;270.30;;
4043;SDS011;2036;51.578;7.108;2022-10-16T02:37:58;305.00;;;278.30;;
4043;SDS011;2036;51.578;7.108;2022-10-16T02:40:25;273.43;;;248.10;;
4043;SDS011;2036;51.578;7.108;2022-10-16T02:42:52;260.70;;;235.87;;
4043;SDS011;2036;51.578;7.108;2022-10-16T02:45:19;267.93;;;242.87;;
4043;SDS011;2036;51.578;7.108;2022-10-16T02:47:46;246.33;;;223.07;;
4043;SDS011;2036;51.578;7.108;2022-10-16T02:50:12;252.97;;;229.00;;
4043;SDS011;2036;51.578;7.108;2022-10-16T02:52:38;290.00;;;263.40;;
4043;SDS011;2036;51.578;7.108;2022-10-16T02:55:03;252.97;;;228.30;;
4043;SDS011;2036;51.578;7.108;2022-10-16T02:57:30;261.30;;;235.73;;
4043;SDS011;2036;51.578;7.108;2022-10-16T02:59:56;221.60;;;199.87;;
4043;SDS011;2036;51.578;7.108;2022-10-16T03:02:23;268.27;;;243.77;;
4043;SDS011;2036;51.578;7.108;2022-10-16T03:04:49;234.47;;;211.73;;
4043;SDS011;2036;51.578;7.108;2022-10-16T03:07:16;240.00;;;216.03;;
4043;SDS011;2036;51.578;7.108;2022-10-16T03:09:42;249.83;;;225.97;;
4043;SDS011;2036;51.578;7.108;2022-10-16T03:12:08;259.57;;;235.43;;
4043;SDS011;2036;51.578;7.108;2022-10-16T03:14:37;299.00;;;272.40;;
4043;SDS011;2036;51.578;7.108;2022-10-16T03:17:04;271.60;;;246.87;;
4043;SDS011;2036;51.578;7.108;2022-10-16T03:19:31;260.40;;;236.30;;
4043;SDS011;2036;51.578;7.108;2022-10-16T03:21:57;259.37;;;235.27;;
4043;SDS011;2036;51.578;7.108;2022-10-16T03:24:22;250.67;;;226.43;;
4043;SDS011;2036;51.578;7.108;2022-10-16T03:26:48;221.67;;;198.80;;
4043;SDS011;2036;51.578;7.108;2022-10-16T03:29:14;241.17;;;217.60;;
4043;SDS011;2036;51.578;7.108;2022-10-16T03:31:40;242.63;;;218.83;;
4043;SDS011;2036;51.578;7.108;2022-10-16T03:34:09;275.97;;;249.97;;
4043;SDS011;2036;51.578;7.108;2022-10-16T03:36:35;258.03;;;233.90;;
4043;SDS011;2036;51.578;7.108;2022-10-16T03:39:00;243.20;;;219.53;;
4043;SDS011;2036;51.578;7.108;2022-10-16T03:41:26;270.53;;;245.30;;
4043;SDS011;2036;51.578;7.108;2022-10-16T03:43:52;285.37;;;259.27;;
4043;SDS011;2036;51.578;7.108;2022-10-16T03:46:18;224.73;;;201.77;;
4043;SDS011;2036;51.578;7.108;2022-10-16T03:48:43;231.50;;;208.13;;
4043;SDS011;2036;51.578;7.108;2022-10-16T03:51:09;233.40;;;208.33;;
4043;SDS011;2036;51.578;7.108;2022-10-16T03:53:35;249.40;;;225.63;;
4043;SDS011;2036;51.578;7.108;2022-10-16T03:56:01;258.73;;;235.03;;
4043;SDS011;2036;51.578;7.108;2022-10-16T03:58:27;279.03;;;253.90;;
4043;SDS011;2036;51.578;7.108;2022-10-16T04:00:52;237.60;;;213.90;;
4043;SDS011;2036;51.578;7.108;2022-10-16T04:03:19;237.13;;;213.50;;
4043;SDS011;2036;51.578;7.108;2022-10-16T04:05:46;275.40;;;250.30;;
4043;SDS011;2036;51.578;7.108;2022-10-16T04:08:12;248.23;;;224.83;;
4043;SDS011;2036;51.578;7.108;2022-10-16T04:10:41;261.67;;;238.27;;
4043;SDS011;2036;51.578;7.108;2022-10-16T04:13:09;258.97;;;234.67;;
4043;SDS011;2036;51.578;7.108;2022-10-16T04:15:36;240.93;;;217.53;;
4043;SDS011;2036;51.578;7.108;2022-10-16T04:18:01;257.23;;;233.33;;
4043;SDS011;2036;51.578;7.108;2022-10-16T04:20:28;271.73;;;246.67;;
4043;SDS011;2036;51.578;7.108;2022-10-16T04:22:54;279.23;;;253.97;;
4043;SDS011;2036;51.578;7.108;2022-10-16T04:25:20;251.83;;;227.60;;
4043;SDS011;2036;51.578;7.108;2022-10-16T04:27:46;251.53;;;228.20;;
4043;SDS011;2036;51.578;7.108;2022-10-16T04:30:12;265.43;;;241.23;;
4043;SDS011;2036;51.578;7.108;2022-10-16T04:32:38;270.37;;;246.20;;
4043;SDS011;2036;51.578;7.108;2022-10-16T04:35:04;275.07;;;250.90;;
4043;SDS011;2036;51.578;7.108;2022-10-16T04:37:32;245.27;;;221.97;;
4043;SDS011;2036;51.578;7.108;2022-10-16T04:39:58;216.40;;;194.40;;
4043;SDS011;2036;51.578;7.108;2022-10-16T04:42:24;259.80;;;236.23;;
4043;SDS011;2036;51.578;7.108;2022-10-16T04:44:50;266.17;;;242.07;;
4043;SDS011;2036;51.578;7.108;2022-10-16T04:47:21;280.43;;;255.63;;
4043;SDS011;2036;51.578;7.108;2022-10-16T04:49:48;271.97;;;247.53;;
4043;SDS011;2036;51.578;7.108;2022-10-16T04:52:14;225.30;;;202.87;;
4043;SDS011;2036;51.578;7.108;2022-10-16T04:54:40;259.77;;;235.40;;
4043;SDS011;2036;51.578;7.108;2022-10-16T04:57:06;259.83;;;235.50;;
4043;SDS011;2036;51.578;7.108;2022-10-16T04:59:32;263.53;;;239.43;;
4043;SDS011;2036;51.578;7.108;2022-10-16T05:01:58;275.40;;;250.50;;
4043;SDS011;2036;51.578;7.108;2022-10-16T05:04:24;235.43;;;212.37;;
4043;SDS011;2036;51.578;7.108;2022-10-16T05:06:49;258.30;;;233.43;;
4043;SDS011;2036;51.578;7.108;2022-10-16T05:09:15;280.93;;;255.23;;
4043;SDS011;2036;51.578;7.108;2022-10-16T05:11:41;259.20;;;234.70;;
4043;SDS011;2036;51.578;7.108;2022-10-16T05:14:07;226.10;;;202.63;;
4043;SDS011;2036;51.578;7.108;2022-10-16T05:16:32;238.20;;;214.53;;
4043;SDS011;2036;51.578;7.108;2022-10-16T05:18:58;262.50;;;237.50;;
4043;SDS011;2036;51.578;7.108;2022-10-16T05:21:24;259.47;;;235.47;;
4043;SDS011;2036;51.578;7.108;2022-10-16T05:23:50;250.20;;;225.80;;
4043;SDS011;2036;51.578;7.108;2022-10-16T05:26:15;270.47;;;245.70;;
4043;SDS011;2036;51.578;7.108;2022-10-16T05:28:41;276.93;;;251.63;;
4043;SDS011;2036;51.578;7.108;2022-10-16T05:31:07;271.93;;;246.30;;
4043;SDS011;2036;51.578;7.108;2022-10-16T05:33:35;283.37;;;257.80;;
4043;SDS011;2036;51.578;7.108;2022-10-16T05:36:01;269.13;;;243.97;;
4043;SDS011;2036;51.578;7.108;2022-10-16T05:38:32;270.27;;;245.57;;
4043;SDS011;2036;51.578;7.108;2022-10-16T05:40:59;252.63;;;228.70;;
4043;SDS011;2036;51.578;7.108;2022-10-16T05:43:26;252.20;;;228.43;;
4043;SDS011;2036;51.578;7.108;2022-10-16T05:48:25;260.17;;;235.40;;
4043;SDS011;2036;51.578;7.108;2022-10-16T05:53:29;262.97;;;238.30;;
4043;SDS011;2036;51.578;7.108;2022-10-16T05:55:57;249.57;;;225.80;;
4043;SDS011;2036;51.578;7.108;2022-10-16T05:58:23;238.43;;;215.27;;
4043;SDS011;2036;51.578;7.108;2022-10-16T06:00:57;226.73;;;204.30;;
4043;SDS011;2036;51.578;7.108;2022-10-16T06:03:27;239.23;;;215.57;;
4043;SDS011;2036;51.578;7.108;2022-10-16T06:05:53;291.40;;;265.37;;
4043;SDS011;2036;51.578;7.108;2022-10-16T06:08:20;208.57;;;187.10;;
4043;SDS011;2036;51.578;7.108;2022-10-16T06:10:48;251.63;;;227.77;;
4043;SDS011;2036;51.578;7.108;2022-10-16T06:13:24;234.67;;;211.57;;
4043;SDS011;2036;51.578;7.108;2022-10-16T06:15:50;226.03;;;203.77;;
4043;SDS011;2036;51.578;7.108;2022-10-16T06:18:16;216.57;;;194.03;;
4043;SDS011;2036;51.578;7.108;2022-10-16T06:20:42;222.20;;;199.87;;
4043;SDS011;2036;51.578;7.108;2022-10-16T06:23:07;225.90;;;203.43;;
4043;SDS011;2036;51.578;7.108;2022-10-16T06:25:33;217.13;;;194.77;;
4043;SDS011;2036;51.578;7.108;2022-10-16T06:27:59;253.17;;;229.27;;
4043;SDS011;2036;51.578;7.108;2022-10-16T06:30:25;225.37;;;202.70;;
4043;SDS011;2036;51.578;7.108;2022-10-16T06:32:50;218.07;;;195.80;;
4043;SDS011;2036;51.578;7.108;2022-10-16T06:35:16;218.23;;;195.83;;
4043;SDS011;2036;51.578;7.108;2022-10-16T06:37:42;224.60;;;202.20;;
4043;SDS011;2036;51.578;7.108;2022-10-16T06:40:08;235.33;;;212.37;;
4043;SDS011;2036;51.578;7.108;2022-10-16T06:42:34;223.57;;;200.77;;
4043;SDS011;2036;51.578;7.108;2022-10-16T06:45:00;230.70;;;207.53;;
4043;SDS011;2036;51.578;7.108;2022-10-16T06:47:26;217.93;;;195.53;;
4043;SDS011;2036;51.578;7.108;2022-10-16T06:49:52;232.27;;;209.47;;
4043;SDS011;2036;51.578;7.108;2022-10-16T06:52:18;251.27;;;226.70;;
4043;SDS011;2036;51.578;7.108;2022-10-16T06:54:44;213.80;;;192.50;;
4043;SDS011;2036;51.578;7.108;2022-10-16T06:57:19;236.60;;;213.40;;
4043;SDS011;2036;51.578;7.108;2022-10-16T06:59:45;219.07;;;197.70;;
4043;SDS011;2036;51.578;7.108;2022-10-16T07:02:11;267.67;;;242.47;;
4043;SDS011;2036;51.578;7.108;2022-10-16T07:04:36;241.03;;;216.50;;
4043;SDS011;2036;51.578;7.108;2022-10-16T07:07:02;234.60;;;211.70;;
4043;SDS011;2036;51.578;7.108;2022-10-16T07:09:28;239.33;;;216.80;;
4043;SDS011;2036;51.578;7.108;2022-10-16T07:11:54;234.47;;;211.87;;
4043;SDS011;2036;51.578;7.108;2022-10-16T07:14:21;220.67;;;198.43;;
4043;SDS011;2036;51.578;7.108;2022-10-16T07:16:47;224.20;;;200.80;;
4043;SDS011;2036;51.578;7.108;2022-10-16T07:19:13;221.63;;;199.33;;
4043;SDS011;2036;51.578;7.108;2022-10-16T07:21:41;238.13;;;214.13;;
4043;SDS011;2036;51.578;7.108;2022-10-16T07:24:11;231.80;;;208.97;;
4043;SDS011;2036;51.578;7.108;2022-10-16T07:26:42;202.90;;;180.43;;
4043;SDS011;2036;51.578;7.108;2022-10-16T07:29:11;234.63;;;211.77;;
4043;SDS011;2036;51.578;7.108;2022-10-16T07:31:44;250.47;;;226.50;;
4043;SDS011;2036;51.578;7.108;2022-10-16T07:34:11;245.70;;;221.97;;
4043;SDS011;2036;51.578;7.108;2022-10-16T07:36:38;269.53;;;244.93;;
4043;SDS011;2036;51.578;7.108;2022-10-16T07:39:04;278.03;;;252.47;;
4043;SDS011;2036;51.578;7.108;2022-10-16T07:41:30;318.47;;;291.37;;
4043;SDS011;2036;51.578;7.108;2022-10-16T07:43:57;288.90;;;263.53;;
4043;SDS011;2036;51.578;7.108;2022-10-16T07:46:26;289.63;;;263.87;;
4043;SDS011;2036;51.578;7.108;2022-10-16T07:48:52;393.93;;;362.00;;
4043;SDS011;2036;51.578;7.108;2022-10-16T07:51:19;358.80;;;329.00;;
4043;SDS011;2036;51.578;7.108;2022-10-16T07:53:48;402.43;;;371.37;;
4043;SDS011;2036;51.578;7.108;2022-10-16T07:56:15;473.00;;;437.03;;
4043;SDS011;2036;51.578;7.108;2022-10-16T07:58:42;450.93;;;416.50;;
4043;SDS011;2036;51.578;7.108;2022-10-16T08:01:10;557.20;;;515.77;;
4043;SDS011;2036;51.578;7.108;2022-10-16T08:03:41;440.13;;;407.13;;
4043;SDS011;2036;51.578;7.108;2022-10-16T08:06:08;388.93;;;357.97;;
4043;SDS011;2036;51.578;7.108;2022-10-16T08:08:34;391.40;;;361.30;;
4043;SDS011;2036;51.578;7.108;2022-10-16T08:11:00;416.13;;;383.90;;
4043;SDS011;2036;51.578;7.108;2022-10-16T08:13:28;395.00;;;364.50;;
4043;SDS011;2036;51.578;7.108;2022-10-16T08:15:55;318.00;;;290.57;;
4043;SDS011;2036;51.578;7.108;2022-10-16T08:18:21;290.13;;;264.37;;
4043;SDS011;2036;51.578;7.108;2022-10-16T08:20:47;251.90;;;228.30;;
4043;SDS011;2036;51.578;7.108;2022-10-16T08:23:19;259.30;;;235.77;;
4043;SDS011;2036;51.578;7.108;2022-10-16T08:25:45;320.17;;;292.70;;
4043;SDS011;2036;51.578;7.108;2022-10-16T08:28:11;239.97;;;217.73;;
4043;SDS011;2036;51.578;7.108;2022-10-16T08:30:36;272.40;;;248.30;;
4043;SDS011;2036;51.578;7.108;2022-10-16T08:33:02;442.80;;;407.47;;
4043;SDS011;2036;51.578;7.108;2022-10-16T08:35:29;393.10;;;361.80;;
4043;SDS011;2036;51.578;7.108;2022-10-16T08:37:55;311.00;;;283.60;;
4043;SDS011;2036;51.578;7.108;2022-10-16T08:40:30;195.17;;;168.57;;
4043;SDS011;2036;51.578;7.108;2022-10-16T08:49:00;159.17;;;131.47;;
4043;SDS011;2036;51.578;7.108;2022-10-16T08:51:29;379.13;;;350.23;;
4043;SDS011;2036;51.578;7.108;2022-10-16T08:54:02;473.13;;;439.43;;
4043;SDS011;2036;51.578;7.108;2022-10-16T08:56:30;445.30;;;413.30;;
4043;SDS011;2036;51.578;7.108;2022-10-16T08:58:57;370.33;;;341.30;;
4043;SDS011;2036;51.578;7.108;2022-10-16T09:01:25;404.13;;;374.13;;
4043;SDS011;2036;51.578;7.108;2022-10-16T09:07:03;414.83;;;384.67;;
4043;SDS011;2036;51.578;7.108;2022-10-16T09:12:28;352.30;;;324.93;;
4043;SDS011;2036;51.578;7.108;2022-10-16T09:15:13;385.60;;;356.93;;
4043;SDS011;2036;51.578;7.108;2022-10-16T09:21:13;415.13;;;384.27;;
4043;SDS011;2036;51.578;7.108;2022-10-16T09:24:09;385.93;;;356.23;;
4043;SDS011;2036;51.578;7.108;2022-10-16T09:26:38;350.23;;;323.07;;
4043;SDS011;2036;51.578;7.108;2022-10-16T09:29:04;387.20;;;357.37;;
4043;SDS011;2036;51.578;7.108;2022-10-16T09:31:29;410.87;;;377.97;;
4043;SDS011;2036;51.578;7.108;2022-10-16T09:33:59;366.30;;;337.07;;
4043;SDS011;2036;51.578;7.108;2022-10-16T09:39:23;339.30;;;312.67;;
4043;SDS011;2036;51.578;7.108;2022-10-16T09:41:50;348.77;;;321.93;;
4043;SDS011;2036;51.578;7.108;2022-10-16T09:44:21;360.30;;;331.57;;
4043;SDS011;2036;51.578;7.108;2022-10-16T09:47:12;363.47;;;335.53;;
4043;SDS011;2036;51.578;7.108;2022-10-16T09:49:50;356.50;;;328.83;;
4043;SDS011;2036;51.578;7.108;2022-10-16T09:52:24;315.67;;;289.50;;
4043;SDS011;2036;51.578;7.108;2022-10-16T09:54:52;389.83;;;360.13;;
4043;SDS011;2036;51.578;7.108;2022-10-16T09:57:27;234.00;;;211.07;;
4043;SDS011;2036;51.578;7.108;2022-10-16T09:59:55;253.80;;;230.23;;
4043;SDS011;2036;51.578;7.108;2022-10-16T10:02:30;304.83;;;279.73;;
4043;SDS011;2036;51.578;7.108;2022-10-16T10:05:00;309.90;;;284.97;;
4043;SDS011;2036;51.578;7.108;2022-10-16T10:07:33;292.17;;;267.87;;
4043;SDS011;2036;51.578;7.108;2022-10-16T10:10:22;321.20;;;295.60;;
4043;SDS011;2036;51.578;7.108;2022-10-16T10:12:54;312.03;;;287.03;;
4043;SDS011;2036;51.578;7.108;2022-10-16T10:15:21;322.70;;;296.83;;
4043;SDS011;2036;51.578;7.108;2022-10-16T10:17:53;206.90;;;185.60;;
4043;SDS011;2036;51.578;7.108;2022-10-16T10:20:39;260.97;;;236.73;;
4043;SDS011;2036;51.578;7.108;2022-10-16T10:23:19;255.87;;;233.47;;
4043;SDS011;2036;51.578;7.108;2022-10-16T10:40:45;209.70;;;188.53;;
4043;SDS011;2036;51.578;7.108;2022-10-16T10:52:25;454.70;;;421.83;;
4043;SDS011;2036;51.578;7.108;2022-10-16T11:01:32;431.30;;;397.80;;
4043;SDS011;2036;51.578;7.108;2022-10-16T11:07:19;490.13;;;454.87;;
4043;SDS011;2036;51.578;7.108;2022-10-16T11:10:42;440.93;;;408.70;;
4043;SDS011;2036;51.578;7.108;2022-10-16T11:16:15;297.87;;;273.57;;
4043;SDS011;2036;51.578;7.108;2022-10-16T11:19:03;260.30;;;237.60;;
4043;SDS011;2036;51.578;7.108;2022-10-16T11:22:13;235.97;;;214.57;;
4043;SDS011;2036;51.578;7.108;2022-10-16T11:25:15;293.77;;;269.07;;
4043;SDS011;2036;51.578;7.108;2022-10-16T11:30:27;170.57;;;151.87;;
4043;SDS011;2036;51.578;7.108;2022-10-16T11:35:53;277.77;;;255.03;;
4043;SDS011;2036;51.578;7.108;2022-10-16T11:38:48;278.30;;;255.63;;
4043;SDS011;2036;51.578;7.108;2022-10-16T11:41:24;176.07;;;157.77;;
4043;SDS011;2036;51.578;7.108;2022-10-16T11:47:36;276.47;;;254.00;;
4043;SDS011;2036;51.578;7.108;2022-10-16T11:56:02;229.07;;;208.67;;
4043;SDS011;2036;51.578;7.108;2022-10-16T12:04:42;140.53;;;103.73;;
4043;SDS011;2036;51.578;7.108;2022-10-16T12:07:17;197.80;;;178.63;;
4043;SDS011;2036;51.578;7.108;2022-10-16T12:09:49;289.67;;;265.17;;
4043;SDS011;2036;51.578;7.108;2022-10-16T12:12:37;277.57;;;254.17;;
4043;SDS011;2036;51.578;7.108;2022-10-16T12:17:48;259.13;;;236.60;;
4043;SDS011;2036;51.578;7.108;2022-10-16T12:25:30;151.07;;;108.37;;
4043;SDS011;2036;51.578;7.108;2022-10-16T12:30:40;273.03;;;250.27;;
4043;SDS011;2036;51.578;7.108;2022-10-16T12:36:00;287.43;;;263.43;;
4043;SDS011;2036;51.578;7.108;2022-10-16T12:38:37;213.23;;;192.47;;
4043;SDS011;2036;51.578;7.108;2022-10-16T12:41:12;261.73;;;238.80;;
4043;SDS011;2036;51.578;7.108;2022-10-16T12:43:48;230.10;;;208.77;;
4043;SDS011;2036;51.578;7.108;2022-10-16T12:48:41;152.90;;;120.60;;
4043;SDS011;2036;51.578;7.108;2022-10-16T12:54:37;151.63;;;129.43;;
4043;SDS011;2036;51.578;7.108;2022-10-16T13:11:27;187.00;;;167.60;;
4043;SDS011;2036;51.578;7.108;2022-10-16T13:14:10;251.70;;;229.47;;
4043;SDS011;2036;51.578;7.108;2022-10-16T13:26:15;244.10;;;221.77;;
4043;SDS011;2036;51.578;7.108;2022-10-16T13:28:47;228.20;;;207.07;;
4043;SDS011;2036;51.578;7.108;2022-10-16T13:31:18;288.73;;;265.77;;
4043;SDS011;2036;51.578;7.108;2022-10-16T13:33:50;270.80;;;247.67;;
4043;SDS011;2036;51.578;7.108;2022-10-16T13:36:25;150.57;;;109.40;;
4043;SDS011;2036;51.578;7.108;2022-10-16T13:41:57;242.93;;;221.63;;
4043;SDS011;2036;51.578;7.108;2022-10-16T13:44:40;271.77;;;248.67;;
4043;SDS011;2036;51.578;7.108;2022-10-16T13:47:18;213.63;;;193.77;;
4043;SDS011;2036;51.578;7.108;2022-10-16T13:52:29;272.37;;;249.70;;
4043;SDS011;2036;51.578;7.108;2022-10-16T13:54:56;252.30;;;230.90;;
4043;SDS011;2036;51.578;7.108;2022-10-16T13:57:22;245.50;;;224.13;;
4043;SDS011;2036;51.578;7.108;2022-10-16T13:59:50;261.83;;;239.60;;
4043;SDS011;2036;51.578;7.108;2022-10-16T14:02:25;222.50;;;202.33;;
4043;SDS011;2036;51.578;7.108;2022-10-16T14:04:52;200.23;;;181.00;;
4043;SDS011;2036;51.578;7.108;2022-10-16T14:07:24;238.07;;;217.10;;
4043;SDS011;2036;51.578;7.108;2022-10-16T14:10:17;297.93;;;273.50;;
4043;SDS011;2036;51.578;7.108;2022-10-16T14:13:05;338.13;;;311.67;;
4043;SDS011;2036;51.578;7.108;2022-10-16T14:15:33;295.43;;;271.20;;
4043;SDS011;2036;51.578;7.108;2022-10-16T14:18:01;342.07;;;315.50;;
4043;SDS011;2036;51.578;7.108;2022-10-16T14:20:32;411.90;;;381.03;;
4043;SDS011;2036;51.578;7.108;2022-10-16T14:23:00;284.73;;;260.60;;
4043;SDS011;2036;51.578;7.108;2022-10-16T14:25:46;293.20;;;268.40;;
4043;SDS011;2036;51.578;7.108;2022-10-16T14:30:55;188.27;;;169.27;;
4043;SDS011;2036;51.578;7.108;2022-10-16T14:36:05;209.17;;;188.53;;
4043;SDS011;2036;51.578;7.108;2022-10-16T14:38:38;171.47;;;153.20;;
4043;SDS011;2036;51.578;7.108;2022-10-16T14:41:07;268.53;;;245.40;;
4043;SDS011;2036;51.578;7.108;2022-10-16T14:43:35;340.83;;;314.13;;
4043;SDS011;2036;51.578;7.108;2022-10-16T14:46:03;371.17;;;342.20;;
4043;SDS011;2036;51.578;7.108;2022-10-16T14:48:49;439.47;;;406.90;;
4043;SDS011;2036;51.578;7.108;2022-10-16T14:51:17;504.90;;;468.70;;
4043;SDS011;2036;51.578;7.108;2022-10-16T14:53:44;485.97;;;450.87;;
4043;SDS011;2036;51.578;7.108;2022-10-16T14:56:15;493.90;;;458.80;;
4043;SDS011;2036;51.578;7.108;2022-10-16T14:58:49;470.23;;;436.13;;
4043;SDS011;2036;51.578;7.108;2022-10-16T15:01:17;476.17;;;441.17;;
4043;SDS011;2036;51.578;7.108;2022-10-16T15:03:43;479.23;;;442.60;;
4043;SDS011;2036;51.578;7.108;2022-10-16T15:06:10;492.20;;;456.13;;
4043;SDS011;2036;51.578;7.108;2022-10-16T15:08:37;508.33;;;470.07;;
4043;SDS011;2036;51.578;7.108;2022-10-16T15:11:04;437.93;;;404.93;;
4043;SDS011;2036;51.578;7.108;2022-10-16T15:13:32;494.90;;;458.47;;
4043;SDS011;2036;51.578;7.108;2022-10-16T15:15:58;502.07;;;465.63;;
4043;SDS011;2036;51.578;7.108;2022-10-16T15:18:24;479.23;;;443.83;;
4043;SDS011;2036;51.578;7.108;2022-10-16T15:20:50;472.27;;;438.43;;
4043;SDS011;2036;51.578;7.108;2022-10-16T15:23:18;509.23;;;472.37;;
4043;SDS011;2036;51.578;7.108;2022-10-16T15:28:18;516.37;;;479.70;;
4043;SDS011;2036;51.578;7.108;2022-10-16T15:30:46;507.83;;;471.63;;
4043;SDS011;2036;51.578;7.108;2022-10-16T15:33:17;542.67;;;503.53;;
4043;SDS011;2036;51.578;7.108;2022-10-16T15:35:49;539.40;;;500.90;;
4043;SDS011;2036;51.578;7.108;2022-10-16T15:38:17;550.30;;;511.67;;
4043;SDS011;2036;51.578;7.108;2022-10-16T15:40:45;513.97;;;477.50;;
4043;SDS011;2036;51.578;7.108;2022-10-16T15:43:12;550.70;;;511.73;;
4043;SDS011;2036;51.578;7.108;2022-10-16T15:45:38;546.47;;;508.57;;
4043;SDS011;2036;51.578;7.108;2022-10-16T15:48:04;519.07;;;482.83;;
4043;SDS011;2036;51.578;7.108;2022-10-16T15:50:30;545.67;;;506.43;;
4043;SDS011;2036;51.578;7.108;2022-10-16T15:52:57;520.03;;;483.67;;
4043;SDS011;2036;51.578;7.108;2022-10-16T15:55:23;551.80;;;513.00;;
4043;SDS011;2036;51.578;7.108;2022-10-16T15:57:49;512.27;;;476.47;;
4043;SDS011;2036;51.578;7.108;2022-10-16T16:00:16;582.47;;;541.57;;
4043;SDS011;2036;51.578;7.108;2022-10-16T16:02:50;584.73;;;542.77;;
4043;SDS011;2036;51.578;7.108;2022-10-16T16:05:19;581.97;;;540.73;;
4043;SDS011;2036;51.578;7.108;2022-10-16T16:07:47;568.67;;;528.40;;
4043;SDS011;2036;51.578;7.108;2022-10-16T16:10:13;559.80;;;519.30;;
4043;SDS011;2036;51.578;7.108;2022-10-16T16:12:39;597.67;;;555.93;;
4043;SDS011;2036;51.578;7.108;2022-10-16T16:15:06;575.00;;;533.30;;
4043;SDS011;2036;51.578;7.108;2022-10-16T16:17:34;601.13;;;558.63;;
4043;SDS011;2036;51.578;7.108;2022-10-16T16:20:01;617.10;;;573.23;;
4043;SDS011;2036;51.578;7.108;2022-10-16T16:22:29;608.67;;;565.93;;
4043;SDS011;2036;51.578;7.108;2022-10-16T16:24:55;589.90;;;547.70;;
4043;SDS011;2036;51.578;7.108;2022-10-16T16:27:21;567.67;;;524.33;;
4043;SDS011;2036;51.578;7.108;2022-10-16T16:29:49;601.80;;;557.17;;
4043;SDS011;2036;51.578;7.108;2022-10-16T16:32:15;623.53;;;576.33;;
4043;SDS011;2036;51.578;7.108;2022-10-16T16:34:41;599.70;;;555.23;;
4043;SDS011;2036;51.578;7.108;2022-10-16T16:37:07;610.80;;;565.90;;
4043;SDS011;2036;51.578;7.108;2022-10-16T16:39:33;668.30;;;621.03;;
4043;SDS011;2036;51.578;7.108;2022-10-16T16:41:59;629.93;;;584.87;;
4043;SDS011;2036;51.578;7.108;2022-10-16T16:44:25;626.10;;;581.23;;
4043;SDS011;2036;51.578;7.108;2022-10-16T16:46:51;624.53;;;580.07;;
4043;SDS011;2036;51.578;7.108;2022-10-16T16:49:17;630.13;;;584.07;;
4043;SDS011;2036;51.578;7.108;2022-10-16T16:51:43;573.13;;;530.27;;
4043;SDS011;2036;51.578;7.108;2022-10-16T16:54:09;556.83;;;513.20;;
4043;SDS011;2036;51.578;7.108;2022-10-16T16:56:38;493.40;;;454.43;;
4043;SDS011;2036;51.578;7.108;2022-10-16T16:59:10;522.13;;;480.43;;
4043;SDS011;2036;51.578;7.108;2022-10-16T17:01:40;618.10;;;572.60;;
4043;SDS011;2036;51.578;7.108;2022-10-16T17:04:06;576.93;;;534.13;;
4043;SDS011;2036;51.578;7.108;2022-10-16T17:06:32;564.63;;;520.27;;
4043;SDS011;2036;51.578;7.108;2022-10-16T17:09:00;560.20;;;517.50;;
4043;SDS011;2036;51.578;7.108;2022-10-16T17:11:27;604.60;;;559.03;;
4043;SDS011;2036;51.578;7.108;2022-10-16T17:13:54;638.27;;;591.57;;
4043;SDS011;2036;51.578;7.108;2022-10-16T17:16:23;573.67;;;530.30;;
4043;SDS011;2036;51.578;7.108;2022-10-16T17:18:51;545.10;;;502.40;;
4043;SDS011;2036;51.578;7.108;2022-10-16T17:21:18;580.33;;;536.73;;
4043;SDS011;2036;51.578;7.108;2022-10-16T17:23:44;554.20;;;512.13;;
4043;SDS011;2036;51.578;7.108;2022-10-16T17:26:14;614.83;;;569.80;;
4043;SDS011;2036;51.578;7.108;2022-10-16T17:28:42;554.73;;;512.43;;